createdAt,value
2018-08-22T00:01:53.952Z,99.90
2018-08-22T00:14:14.665Z,99.90
2018-08-22T00:16:43.826Z,99.90
2018-08-22T00:31:01.433Z,99.90
2018-08-22T00:33:29.916Z,99.90
2018-08-22T01:16:47.405Z,99.90
2018-08-22T01:52:45.446Z,99.90
2018-08-22T01:55:15.950Z,99.90
2018-08-22T02:13:18.572Z,99.90
2018-08-22T02:15:48.644Z,99.90
2018-08-22T02:18:17.766Z,99.90
2018-08-22T03:28:27.439Z,99.90
2018-08-22T03:30:56.465Z,99.90
2018-08-22T04:43:02.558Z,99.90
2018-08-22T04:45:33.773Z,99.90
2018-08-22T04:59:16.174Z,99.90
2018-08-22T05:01:47.162Z,99.90
2018-08-22T05:13:14.774Z,99.90
2018-08-22T05:15:44.220Z,99.90
2018-08-22T05:54:19.554Z,99.90
2018-08-22T06:02:31.922Z,99.90
2018-08-22T06:24:07.070Z,99.90
2018-08-22T06:30:01.406Z,99.90
2018-08-22T06:36:03.340Z,99.90
2018-08-22T06:38:32.843Z,99.90
2018-08-22T06:53:12.234Z,99.90
2018-08-22T06:58:33.823Z,99.90
2018-08-22T07:01:02.325Z,99.90
2018-08-22T07:03:30.993Z,99.90
2018-08-22T07:05:59.453Z,99.90
2018-08-22T07:08:27.862Z,99.90
2018-08-22T07:10:56.373Z,99.90
2018-08-22T07:13:24.843Z,99.90
2018-08-22T07:15:53.292Z,99.90
2018-08-22T07:18:21.753Z,99.90
2018-08-22T07:20:50.186Z,99.90
2018-08-22T07:23:18.789Z,99.90
2018-08-22T07:25:47.319Z,99.90
2018-08-22T07:28:15.740Z,99.90
2018-08-22T07:30:44.164Z,99.90
2018-08-22T07:33:12.640Z,99.90
2018-08-22T07:35:41.102Z,99.90
2018-08-22T07:38:09.538Z,99.90
2018-08-22T07:40:38.154Z,99.90
2018-08-22T07:43:06.886Z,99.90
2018-08-22T07:45:35.284Z,99.90
2018-08-22T07:48:03.933Z,99.90
2018-08-22T07:50:32.828Z,99.90
2018-08-22T07:53:03.883Z,99.90
2018-08-22T07:55:36.174Z,99.90
2018-08-22T07:58:04.859Z,99.90
2018-08-22T08:00:33.304Z,99.90
2018-08-22T08:03:01.788Z,99.90
2018-08-22T08:05:30.262Z,99.90
2018-08-22T08:07:59.008Z,99.90
2018-08-22T08:10:32.686Z,99.90
2018-08-22T08:13:01.685Z,99.90
2018-08-22T08:15:30.127Z,99.90
2018-08-22T08:17:58.948Z,99.90
2018-08-22T08:20:27.416Z,99.90
2018-08-22T08:22:55.957Z,99.90
2018-08-22T08:25:24.360Z,99.90
2018-08-22T08:27:52.775Z,99.90
2018-08-22T08:30:21.187Z,99.90
2018-08-22T08:32:49.591Z,99.90
2018-08-22T08:35:18.041Z,99.00
2018-08-22T08:37:46.443Z,98.60
2018-08-22T08:40:14.864Z,96.20
2018-08-22T08:42:43.292Z,94.60
2018-08-22T08:45:12.186Z,94.80
2018-08-22T08:47:40.670Z,94.50
2018-08-22T08:50:09.096Z,95.10
2018-08-22T08:52:38.012Z,95.00
2018-08-22T08:55:06.522Z,95.30
2018-08-22T08:57:34.946Z,92.20
2018-08-22T09:00:03.487Z,93.20
2018-08-22T09:02:31.907Z,90.90
2018-08-22T09:05:00.349Z,90.00
2018-08-22T09:07:28.758Z,89.50
2018-08-22T09:09:57.266Z,87.90
2018-08-22T09:12:25.686Z,84.00
2018-08-22T09:17:22.545Z,83.20
2018-08-22T09:19:50.932Z,78.40
2018-08-22T09:22:19.334Z,77.00
2018-08-22T09:24:47.748Z,74.90
2018-08-22T09:27:16.167Z,75.70
2018-08-22T09:29:44.568Z,79.40
2018-08-22T09:32:12.953Z,74.70
2018-08-22T09:34:41.468Z,75.20
2018-08-22T09:37:09.887Z,73.80
2018-08-22T09:39:38.305Z,75.40
2018-08-22T09:42:06.714Z,74.00
2018-08-22T09:44:35.129Z,74.50
2018-08-22T09:47:03.574Z,70.80
2018-08-22T09:49:32.015Z,70.80
2018-08-22T09:52:00.428Z,71.10
2018-08-22T09:54:28.902Z,68.50
2018-08-22T09:56:57.266Z,68.90
2018-08-22T09:59:25.684Z,69.30
2018-08-22T10:01:54.073Z,69.30
2018-08-22T10:04:22.527Z,66.20
2018-08-22T10:06:51.383Z,68.00
2018-08-22T10:09:22.833Z,62.60
2018-08-22T10:11:51.430Z,62.80
2018-08-22T10:14:19.817Z,60.60
2018-08-22T10:16:48.227Z,56.60
2018-08-22T10:19:16.693Z,58.10
2018-08-22T10:21:45.089Z,57.00
2018-08-22T10:24:13.534Z,56.40
2018-08-22T10:26:42.070Z,58.40
2018-08-22T10:29:10.515Z,57.70
2018-08-22T10:31:38.915Z,56.60
2018-08-22T10:34:07.341Z,55.70
2018-08-22T10:36:35.731Z,55.80
2018-08-22T10:39:05.994Z,55.00
2018-08-22T10:41:34.422Z,55.70
2018-08-22T10:44:02.813Z,55.00
2018-08-22T10:46:31.210Z,53.60
2018-08-22T10:48:59.630Z,51.80
2018-08-22T10:51:28.035Z,51.40
2018-08-22T10:53:56.468Z,51.20
2018-08-22T10:56:24.851Z,51.40
2018-08-22T10:58:53.290Z,49.10
2018-08-22T11:01:21.709Z,48.30
2018-08-22T11:03:50.125Z,44.30
2018-08-22T11:06:18.530Z,44.50
2018-08-22T11:08:46.933Z,46.30
2018-08-22T11:11:15.377Z,47.40
2018-08-22T11:13:43.784Z,49.60
2018-08-22T11:16:12.188Z,48.30
2018-08-22T11:18:40.608Z,48.20
2018-08-22T11:21:20.285Z,46.30
2018-08-22T11:24:00.015Z,46.50
2018-08-22T11:26:39.767Z,47.00
2018-08-22T11:29:19.497Z,46.50
2018-08-22T11:31:59.211Z,46.10
2018-08-22T11:34:38.943Z,46.50
2018-08-22T11:37:11.475Z,46.40
2018-08-22T11:39:39.934Z,47.70
2018-08-22T11:42:08.386Z,47.30
2018-08-22T11:44:36.853Z,45.90
2018-08-22T11:47:05.366Z,48.10
2018-08-22T11:49:33.789Z,47.60
2018-08-22T11:52:02.337Z,46.50
2018-08-22T11:54:31.336Z,46.00
2018-08-22T11:57:00.146Z,46.70
2018-08-22T11:59:28.575Z,46.10
2018-08-22T12:01:57.009Z,47.50
2018-08-22T12:04:25.420Z,47.50
2018-08-22T12:06:53.834Z,46.70
2018-08-22T12:09:22.272Z,47.60
2018-08-22T12:11:50.695Z,47.50
2018-08-22T12:14:19.236Z,48.00
2018-08-22T12:16:47.656Z,47.50
2018-08-22T12:19:16.055Z,48.80
2018-08-22T12:21:44.515Z,47.20
2018-08-22T12:24:13.240Z,47.00
2018-08-22T12:26:41.649Z,47.40
2018-08-22T12:29:10.298Z,45.80
2018-08-22T12:31:38.715Z,46.60
2018-08-22T12:34:07.132Z,46.70
2018-08-22T12:36:35.579Z,48.20
2018-08-22T12:39:05.489Z,48.30
2018-08-22T12:41:33.914Z,48.70
2018-08-22T12:44:02.362Z,48.40
2018-08-22T12:46:30.801Z,47.60
2018-08-22T12:48:59.198Z,49.00
2018-08-22T12:51:27.648Z,50.10
2018-08-22T12:53:56.020Z,49.80
2018-08-22T12:56:24.458Z,50.50
2018-08-22T12:58:52.881Z,51.30
2018-08-22T13:01:21.295Z,50.60
2018-08-22T13:03:49.722Z,51.10
2018-08-22T13:06:18.117Z,52.00
2018-08-22T13:08:46.555Z,52.50
2018-08-22T13:11:15.078Z,51.50
2018-08-22T13:13:43.486Z,51.00
2018-08-22T13:16:11.956Z,51.90
2018-08-22T13:18:40.389Z,52.40
2018-08-22T13:21:08.812Z,51.30
2018-08-22T13:23:37.227Z,52.60
2018-08-22T13:26:05.708Z,52.40
2018-08-22T13:28:34.115Z,52.80
2018-08-22T13:31:02.502Z,51.80
2018-08-22T13:33:30.917Z,51.90
2018-08-22T13:35:59.330Z,52.00
2018-08-22T13:38:27.726Z,51.10
2018-08-22T13:40:56.122Z,50.50
2018-08-22T13:43:24.587Z,51.00
2018-08-22T13:45:52.986Z,51.00
2018-08-22T13:48:21.429Z,52.10
2018-08-22T13:50:49.941Z,52.40
2018-08-22T13:53:18.348Z,54.30
2018-08-22T13:55:46.772Z,52.30
2018-08-22T13:58:15.257Z,51.00
2018-08-22T14:00:43.656Z,51.00
2018-08-22T14:03:12.113Z,52.70
2018-08-22T14:05:40.533Z,52.30
2018-08-22T14:08:08.935Z,51.40
2018-08-22T14:10:37.328Z,52.60
2018-08-22T14:13:05.840Z,52.50
2018-08-22T14:15:34.244Z,53.20
2018-08-22T14:18:02.677Z,53.40
2018-08-22T14:20:31.364Z,53.40
2018-08-22T14:22:59.831Z,53.60
2018-08-22T14:25:28.272Z,53.40
2018-08-22T14:27:56.713Z,54.00
2018-08-22T14:30:25.131Z,52.80
2018-08-22T14:32:53.553Z,53.70
2018-08-22T14:35:21.957Z,53.10
2018-08-22T14:37:50.401Z,54.00
2018-08-22T14:40:18.843Z,53.30
2018-08-22T14:42:47.289Z,53.30
2018-08-22T14:45:15.700Z,53.00
2018-08-22T14:47:44.129Z,53.30
2018-08-22T14:50:12.578Z,54.30
2018-08-22T14:52:40.992Z,53.20
2018-08-22T14:57:37.538Z,52.90
2018-08-22T15:00:06.524Z,52.70
2018-08-22T15:02:35.052Z,53.70
2018-08-22T15:05:03.360Z,52.60
2018-08-22T15:07:31.831Z,51.70
2018-08-22T15:10:00.225Z,52.10
2018-08-22T15:12:28.645Z,51.40
2018-08-22T15:14:57.034Z,53.40
2018-08-22T15:17:25.459Z,52.00
2018-08-22T15:19:53.887Z,52.60
2018-08-22T15:22:22.285Z,51.90
2018-08-22T15:24:50.708Z,52.60
2018-08-22T15:27:19.109Z,52.80
2018-08-22T15:29:47.572Z,52.20
2018-08-22T15:32:16.044Z,51.60
2018-08-22T15:34:53.781Z,53.10
2018-08-22T15:37:22.803Z,52.70
2018-08-22T15:39:51.317Z,52.30
2018-08-22T15:42:19.931Z,51.80
2018-08-22T15:44:48.475Z,51.80
2018-08-22T15:47:16.968Z,53.20
2018-08-22T15:49:46.319Z,52.70
2018-08-22T15:52:14.869Z,52.80
2018-08-22T15:54:46.985Z,51.50
2018-08-22T15:57:15.417Z,52.10
2018-08-22T15:59:43.836Z,52.20
2018-08-22T16:02:12.301Z,50.30
2018-08-22T16:04:52.400Z,51.00
2018-08-22T16:07:20.824Z,49.60
2018-08-22T16:09:49.243Z,51.60
2018-08-22T16:12:17.640Z,50.00
2018-08-22T16:14:46.049Z,51.50
2018-08-22T16:17:14.453Z,50.10
2018-08-22T16:19:43.145Z,51.00
2018-08-22T16:22:11.563Z,50.90
2018-08-22T16:24:42.257Z,50.20
2018-08-22T16:27:10.723Z,50.70
2018-08-22T16:29:39.164Z,50.00
2018-08-22T16:32:07.583Z,49.80
2018-08-22T16:34:36.040Z,50.30
2018-08-22T16:37:04.490Z,50.40
2018-08-22T16:39:42.219Z,51.10
2018-08-22T16:42:11.218Z,50.90
2018-08-22T16:44:40.230Z,50.20
2018-08-22T16:47:08.664Z,50.80
2018-08-22T16:49:37.106Z,50.80
2018-08-22T16:52:05.535Z,51.80
2018-08-22T16:54:33.961Z,52.50
2018-08-22T16:57:02.417Z,52.50
2018-08-22T16:59:30.879Z,52.70
2018-08-22T17:01:59.411Z,53.50
2018-08-22T17:04:27.772Z,53.20
2018-08-22T17:06:58.074Z,53.70
2018-08-22T17:09:27.846Z,53.20
2018-08-22T17:11:56.297Z,53.60
2018-08-22T17:14:24.747Z,54.60
2018-08-22T17:16:53.207Z,55.20
2018-08-22T17:19:21.634Z,55.50
2018-08-22T17:21:50.081Z,56.00
2018-08-22T17:24:18.515Z,56.30
2018-08-22T17:26:46.957Z,56.50
2018-08-22T17:29:15.528Z,56.30
2018-08-22T17:31:45.517Z,56.50
2018-08-22T17:34:14.010Z,56.40
2018-08-22T17:36:42.572Z,56.70
2018-08-22T17:39:11.139Z,57.10
2018-08-22T17:41:39.561Z,61.40
2018-08-22T17:44:11.364Z,59.60
2018-08-22T17:46:43.221Z,64.30
2018-08-22T17:49:11.686Z,60.40
2018-08-22T17:54:37.872Z,58.40
2018-08-22T17:57:19.048Z,62.30
2018-08-22T17:59:47.537Z,67.40
2018-08-22T18:02:16.117Z,67.70
2018-08-22T18:04:51.950Z,60.20
2018-08-22T18:07:20.534Z,64.50
2018-08-22T18:09:49.836Z,70.10
2018-08-22T18:12:19.196Z,70.30
2018-08-22T18:14:47.753Z,67.20
2018-08-22T18:17:18.342Z,71.90
2018-08-22T18:19:47.501Z,68.80
2018-08-22T18:22:16.150Z,70.80
2018-08-22T18:24:49.885Z,72.70
2018-08-22T18:27:18.401Z,78.10
2018-08-22T18:29:47.158Z,70.10
2018-08-22T18:34:56.665Z,79.40
2018-08-22T18:37:25.916Z,77.40
2018-08-22T18:40:06.065Z,76.20
2018-08-22T18:42:34.526Z,76.40
2018-08-22T18:45:03.036Z,80.70
2018-08-22T18:47:33.538Z,80.10
2018-08-22T18:50:02.049Z,79.40
2018-08-22T18:52:30.842Z,85.60
2018-08-22T18:54:59.519Z,87.20
2018-08-22T18:57:28.225Z,84.60
2018-08-22T18:59:56.735Z,85.60
2018-08-22T19:02:25.253Z,88.80
2018-08-22T19:04:53.900Z,87.90
2018-08-22T19:07:22.414Z,91.80
2018-08-22T19:09:51.384Z,91.90
2018-08-22T19:12:20.840Z,93.90
2018-08-22T19:14:49.382Z,93.80
2018-08-22T19:17:18.352Z,97.50
2018-08-22T19:19:48.215Z,98.30
2018-08-22T19:25:04.145Z,99.40
2018-08-22T19:27:33.889Z,99.90
2018-08-22T19:30:04.491Z,99.90
2018-08-22T19:32:33.134Z,99.90
2018-08-22T19:35:01.682Z,99.90
2018-08-22T19:37:32.348Z,99.90
2018-08-22T19:40:08.941Z,99.90
2018-08-22T19:42:39.028Z,99.90
2018-08-22T19:45:08.432Z,99.90
2018-08-22T19:47:39.062Z,99.90
2018-08-22T19:50:09.024Z,99.90
2018-08-22T19:52:37.492Z,99.90
2018-08-22T19:55:07.072Z,99.90
2018-08-22T19:57:36.928Z,99.90
2018-08-22T20:00:08.685Z,99.90
2018-08-22T20:02:37.888Z,99.90
2018-08-22T20:05:07.593Z,99.90
2018-08-22T20:07:36.337Z,99.90
2018-08-22T20:10:04.957Z,99.90
2018-08-22T20:12:46.165Z,99.90
2018-08-22T20:15:15.557Z,99.90
2018-08-22T20:17:46.559Z,99.90
2018-08-22T20:20:15.476Z,99.90
2018-08-22T20:22:46.154Z,99.90
2018-08-22T20:25:15.042Z,99.90
2018-08-22T20:27:43.547Z,99.90
2018-08-22T20:30:20.467Z,99.90
2018-08-22T20:35:49.714Z,99.90
2018-08-22T20:38:18.534Z,99.90
2018-08-22T20:40:49.516Z,99.90
2018-08-22T20:43:25.130Z,99.90
2018-08-22T20:45:54.232Z,99.90
2018-08-22T20:48:22.710Z,99.90
2018-08-22T20:53:19.468Z,99.90
2018-08-22T20:55:47.985Z,99.90
2018-08-22T20:58:27.142Z,99.90
2018-08-22T21:00:55.655Z,99.90
2018-08-22T21:03:24.120Z,99.90
2018-08-22T21:05:52.586Z,99.90
2018-08-22T21:10:49.346Z,99.90
2018-08-22T21:13:23.868Z,99.90
2018-08-22T21:15:52.442Z,99.90
2018-08-22T21:18:20.870Z,99.90
2018-08-22T21:20:49.382Z,99.90
2018-08-22T21:23:17.712Z,99.90
2018-08-22T21:25:46.356Z,99.90
2018-08-22T21:28:14.933Z,99.90
2018-08-22T21:30:48.655Z,99.90
2018-08-22T21:33:17.096Z,99.90
2018-08-22T21:35:45.517Z,99.90
2018-08-22T21:40:47.642Z,99.90
2018-08-22T21:43:16.016Z,99.90
2018-08-22T21:45:44.660Z,99.90
2018-08-22T21:48:16.651Z,99.90
2018-08-22T21:50:45.615Z,99.90
2018-08-22T21:53:13.999Z,99.90
2018-08-22T21:55:43.520Z,99.90
2018-08-22T21:58:12.407Z,99.90
2018-08-22T22:00:40.829Z,99.90
2018-08-22T22:03:10.286Z,99.90
2018-08-22T22:05:56.121Z,99.90
2018-08-22T22:10:59.402Z,99.90
2018-08-22T22:13:27.902Z,99.90
2018-08-22T22:16:01.127Z,99.90
2018-08-22T22:18:31.080Z,99.90
2018-08-22T22:21:13.717Z,99.90
2018-08-22T22:23:49.163Z,99.90
2018-08-22T22:28:46.866Z,99.90
2018-08-22T22:31:16.421Z,99.90
2018-08-22T22:33:51.258Z,99.90
2018-08-22T22:36:19.659Z,99.90
2018-08-22T22:38:48.025Z,99.90
2018-08-22T22:41:16.441Z,99.90
2018-08-22T22:43:44.830Z,99.90
2018-08-22T22:46:13.233Z,99.90
2018-08-22T22:53:39.302Z,99.90
2018-08-22T22:56:07.764Z,99.90
2018-08-22T22:58:37.019Z,99.90
2018-08-22T23:01:06.233Z,99.90
2018-08-22T23:03:34.658Z,99.90
2018-08-22T23:06:03.070Z,99.90
2018-08-22T23:08:31.524Z,99.90
2018-08-22T23:10:59.919Z,99.90
2018-08-22T23:13:29.364Z,99.90
2018-08-22T23:15:57.770Z,99.90
2018-08-22T23:18:26.262Z,99.90
2018-08-22T23:20:54.625Z,99.90
2018-08-22T23:23:33.806Z,99.90
2018-08-22T23:26:08.614Z,99.90
2018-08-22T23:28:37.076Z,99.90
2018-08-22T23:31:05.471Z,99.90
2018-08-22T23:33:33.976Z,99.90
2018-08-22T23:36:02.510Z,99.90
2018-08-22T23:38:32.958Z,99.90
2018-08-22T23:41:01.980Z,99.90
2018-08-22T23:43:37.024Z,99.90
2018-08-22T23:46:06.630Z,99.90
2018-08-22T23:48:35.631Z,99.90
2018-08-22T23:51:05.522Z,99.90
2018-08-22T23:53:39.761Z,99.90
2018-08-22T23:56:29.688Z,99.90
2018-08-22T23:58:58.603Z,99.90
